createdAt,value
2018-07-16T00:00:48.457Z,0
2018-07-16T00:01:48.743Z,0
2018-07-16T00:02:48.759Z,0
2018-07-16T00:03:48.815Z,0
2018-07-16T00:04:48.573Z,0
2018-07-16T00:05:48.842Z,0
2018-07-16T00:06:48.627Z,0
2018-07-16T00:07:48.952Z,0
2018-07-16T00:08:48.653Z,0
2018-07-16T00:09:48.422Z,0
2018-07-16T00:10:48.972Z,0
2018-07-16T00:11:48.733Z,0
2018-07-16T00:12:49.015Z,0
2018-07-16T00:13:49.046Z,0
2018-07-16T00:14:48.286Z,0
2018-07-16T00:15:48.574Z,0
2018-07-16T00:16:48.351Z,0
2018-07-16T00:17:49.146Z,0
2018-07-16T00:18:49.176Z,0
2018-07-16T00:19:54.681Z,0
2018-07-16T00:20:48.961Z,0
2018-07-16T00:21:48.727Z,0
2018-07-16T00:22:49.005Z,0
2018-07-16T00:23:48.773Z,0
2018-07-16T00:24:49.054Z,0
2018-07-16T00:25:49.091Z,0
2018-07-16T00:26:49.368Z,0
2018-07-16T00:27:49.135Z,0
2018-07-16T00:28:48.901Z,0
2018-07-16T00:29:49.181Z,0
2018-07-16T00:30:49.465Z,0
2018-07-16T00:31:49.491Z,0
2018-07-16T00:32:49.000Z,0
2018-07-16T00:33:49.291Z,0
2018-07-16T00:34:49.316Z,0
2018-07-16T00:35:49.337Z,0
2018-07-16T00:36:49.620Z,0
2018-07-16T00:37:49.393Z,0
2018-07-16T00:38:49.420Z,0
2018-07-16T00:39:49.191Z,0
2018-07-16T00:40:49.458Z,0
2018-07-16T00:41:49.479Z,0
2018-07-16T00:42:49.506Z,0
2018-07-16T00:43:49.532Z,0
2018-07-16T00:44:49.568Z,0
2018-07-16T00:45:49.597Z,0
2018-07-16T00:46:49.617Z,0
2018-07-16T00:47:49.899Z,0
2018-07-16T00:48:49.404Z,0
2018-07-16T00:49:49.949Z,0
2018-07-16T00:50:49.710Z,0
2018-07-16T00:51:49.729Z,0
2018-07-16T00:52:49.750Z,0
2018-07-16T00:53:50.039Z,0
2018-07-16T00:54:50.072Z,0
2018-07-16T00:55:50.312Z,0
2018-07-16T00:56:49.857Z,0
2018-07-16T00:57:50.147Z,0
2018-07-16T00:58:49.901Z,0
2018-07-16T00:59:49.949Z,0
2018-07-16T01:00:49.951Z,0
2018-07-16T01:01:49.976Z,0
2018-07-16T01:02:49.478Z,0
2018-07-16T01:03:50.028Z,0
2018-07-16T01:04:50.056Z,0
2018-07-16T01:05:50.334Z,0
2018-07-16T01:06:49.577Z,0
2018-07-16T01:07:50.132Z,0
2018-07-16T01:08:50.415Z,0
2018-07-16T01:09:50.434Z,0
2018-07-16T01:10:50.198Z,0
2018-07-16T01:11:50.231Z,0
2018-07-16T01:12:50.505Z,0
2018-07-16T01:13:50.270Z,0
2018-07-16T01:14:50.293Z,0
2018-07-16T01:15:50.324Z,0
2018-07-16T01:16:50.658Z,0
2018-07-16T01:17:50.367Z,0
2018-07-16T01:18:50.395Z,0
2018-07-16T01:19:50.156Z,0
2018-07-16T01:20:50.698Z,0
2018-07-16T01:21:50.724Z,0
2018-07-16T01:22:50.750Z,0
2018-07-16T01:23:50.525Z,0
2018-07-16T01:24:50.537Z,0
2018-07-16T01:25:50.299Z,0
2018-07-16T01:26:50.848Z,0
2018-07-16T01:27:50.878Z,0
2018-07-16T01:28:50.370Z,0
2018-07-16T01:29:50.923Z,0
2018-07-16T01:30:50.681Z,0
2018-07-16T01:31:50.708Z,0
2018-07-16T01:32:50.473Z,0
2018-07-16T01:33:51.023Z,0
2018-07-16T01:34:51.046Z,0
2018-07-16T01:35:51.065Z,0
2018-07-16T01:36:50.826Z,0
2018-07-16T01:37:50.595Z,0
2018-07-16T01:38:50.879Z,0
2018-07-16T01:39:51.163Z,0
2018-07-16T01:40:51.193Z,0
2018-07-16T01:41:51.235Z,0
2018-07-16T01:42:50.723Z,0
2018-07-16T01:43:51.258Z,0
2018-07-16T01:44:51.286Z,0
2018-07-16T01:45:51.041Z,0
2018-07-16T01:46:51.333Z,0
2018-07-16T01:47:51.356Z,0
2018-07-16T01:48:51.116Z,0
2018-07-16T01:49:51.144Z,0
2018-07-16T01:50:50.907Z,0
2018-07-16T01:51:51.203Z,0
2018-07-16T01:52:51.469Z,0
2018-07-16T01:53:51.243Z,0
2018-07-16T01:54:51.521Z,0
2018-07-16T01:55:51.290Z,0
2018-07-16T01:56:51.318Z,0
2018-07-16T01:57:51.337Z,0
2018-07-16T01:58:51.614Z,0
2018-07-16T01:59:51.652Z,0
2018-07-16T02:00:51.667Z,0
2018-07-16T02:01:51.169Z,0
2018-07-16T02:02:51.711Z,0
2018-07-16T02:03:51.741Z,0
2018-07-16T02:04:51.496Z,0
2018-07-16T02:05:51.781Z,0
2018-07-16T02:06:51.809Z,0
2018-07-16T02:07:51.830Z,0
2018-07-16T02:08:51.596Z,0
2018-07-16T02:09:51.617Z,0
2018-07-16T02:10:51.644Z,0
2018-07-16T02:11:51.680Z,0
2018-07-16T02:12:51.749Z,0
2018-07-16T02:13:52.169Z,0
2018-07-16T02:14:52.001Z,0
2018-07-16T02:15:52.421Z,0
2018-07-16T02:16:52.049Z,0
2018-07-16T02:17:51.811Z,0
2018-07-16T02:18:52.092Z,0
2018-07-16T02:19:51.867Z,0
2018-07-16T02:20:52.136Z,0
2018-07-16T02:21:51.901Z,0
2018-07-16T02:22:52.378Z,0
2018-07-16T02:23:52.686Z,0
2018-07-16T02:24:52.292Z,0
2018-07-16T02:25:52.262Z,0
2018-07-16T02:26:52.278Z,0
2018-07-16T02:27:52.313Z,0
2018-07-16T02:28:52.081Z,0
2018-07-16T02:29:52.095Z,0
2018-07-16T02:30:51.875Z,0
2018-07-16T02:31:52.424Z,0
2018-07-16T02:32:52.165Z,0
2018-07-16T02:33:51.936Z,0
2018-07-16T02:34:52.225Z,0
2018-07-16T02:35:52.240Z,0
2018-07-16T02:36:52.524Z,0
2018-07-16T02:37:52.555Z,0
2018-07-16T02:38:52.587Z,0
2018-07-16T02:39:52.327Z,0
2018-07-16T02:40:52.362Z,0
2018-07-16T02:41:52.638Z,0
2018-07-16T02:42:52.679Z,0
2018-07-16T02:43:52.432Z,0
2018-07-16T02:44:52.707Z,0
2018-07-16T02:45:52.738Z,0
2018-07-16T02:46:52.491Z,0
2018-07-16T02:47:52.782Z,4
2018-07-16T02:48:52.545Z,4
2018-07-16T02:49:52.609Z,4
2018-07-16T02:50:52.583Z,0
2018-07-16T02:51:52.611Z,0
2018-07-16T02:52:52.896Z,4
2018-07-16T02:53:52.660Z,4
2018-07-16T02:54:52.686Z,4
2018-07-16T02:55:52.827Z,4
2018-07-16T02:56:52.720Z,4
2018-07-16T02:57:52.484Z,4
2018-07-16T02:58:52.779Z,8
2018-07-16T02:59:52.804Z,4
2018-07-16T03:00:52.828Z,8
2018-07-16T03:01:53.112Z,8
2018-07-16T03:02:53.129Z,8
2018-07-16T03:03:52.903Z,12
2018-07-16T03:04:52.919Z,8
2018-07-16T03:05:52.934Z,12
2018-07-16T03:06:53.269Z,12
2018-07-16T03:07:52.984Z,16
2018-07-16T03:08:53.276Z,16
2018-07-16T03:09:53.025Z,16
2018-07-16T03:10:53.061Z,16
2018-07-16T03:11:53.331Z,20
2018-07-16T03:12:53.356Z,24
2018-07-16T03:13:53.381Z,24
2018-07-16T03:14:52.878Z,24
2018-07-16T03:15:53.169Z,28
2018-07-16T03:16:52.934Z,28
2018-07-16T03:17:53.572Z,28
2018-07-16T03:18:53.490Z,36
2018-07-16T03:19:53.254Z,32
2018-07-16T03:20:53.547Z,36
2018-07-16T03:21:53.560Z,40
2018-07-16T03:22:53.582Z,44
2018-07-16T03:23:53.353Z,48
2018-07-16T03:24:53.638Z,48
2018-07-16T03:25:53.134Z,48
2018-07-16T03:26:53.677Z,52
2018-07-16T03:27:53.439Z,56
2018-07-16T03:28:53.468Z,56
2018-07-16T03:29:53.483Z,60
2018-07-16T03:30:53.775Z,64
2018-07-16T03:31:53.804Z,64
2018-07-16T03:32:53.548Z,72
2018-07-16T03:33:53.885Z,76
2018-07-16T03:34:53.609Z,76
2018-07-16T03:35:53.638Z,80
2018-07-16T03:36:53.907Z,84
2018-07-16T03:37:53.668Z,84
2018-07-16T03:38:53.949Z,88
2018-07-16T03:39:53.716Z,88
2018-07-16T03:40:54.004Z,92
2018-07-16T03:41:54.016Z,96
2018-07-16T03:42:53.779Z,100
2018-07-16T03:43:54.076Z,104
2018-07-16T03:44:53.824Z,104
2018-07-16T03:45:53.848Z,108
2018-07-16T03:46:53.875Z,108
2018-07-16T03:47:53.641Z,116
2018-07-16T03:48:53.916Z,120
2018-07-16T03:49:53.954Z,120
2018-07-16T03:50:54.221Z,124
2018-07-16T03:51:53.995Z,124
2018-07-16T03:52:54.268Z,128
2018-07-16T03:53:54.035Z,132
2018-07-16T03:54:53.795Z,132
2018-07-16T03:55:54.676Z,140
2018-07-16T03:56:54.422Z,140
2018-07-16T03:57:54.382Z,144
2018-07-16T03:58:54.405Z,144
2018-07-16T03:59:54.426Z,148
2018-07-16T04:00:54.191Z,152
2018-07-16T04:01:54.213Z,152
2018-07-16T04:02:54.500Z,156
2018-07-16T04:03:54.521Z,160
2018-07-16T04:04:54.571Z,160
2018-07-16T04:05:54.303Z,164
2018-07-16T04:06:54.332Z,164
2018-07-16T04:07:54.398Z,164
2018-07-16T04:08:54.640Z,168
2018-07-16T04:09:54.406Z,168
2018-07-16T04:10:54.155Z,168
2018-07-16T04:11:54.445Z,172
2018-07-16T04:12:54.458Z,176
2018-07-16T04:13:54.739Z,180
2018-07-16T04:14:54.504Z,184
2018-07-16T04:15:54.529Z,184
2018-07-16T04:16:54.819Z,184
2018-07-16T04:17:54.325Z,192
2018-07-16T04:18:54.077Z,196
2018-07-16T04:19:54.360Z,200
2018-07-16T04:20:54.906Z,200
2018-07-16T04:21:54.665Z,204
2018-07-16T04:22:54.695Z,208
2018-07-16T04:23:54.462Z,208
2018-07-16T04:24:55.006Z,212
2018-07-16T04:25:54.755Z,216
2018-07-16T04:26:55.058Z,228
2018-07-16T04:27:54.798Z,240
2018-07-16T04:28:54.819Z,260
2018-07-16T04:29:54.845Z,276
2018-07-16T04:30:55.433Z,276
2018-07-16T04:31:55.215Z,256
2018-07-16T04:32:55.176Z,244
2018-07-16T04:33:54.956Z,248
2018-07-16T04:34:55.229Z,248
2018-07-16T04:35:54.723Z,260
2018-07-16T04:36:55.007Z,264
2018-07-16T04:37:55.289Z,268
2018-07-16T04:38:55.050Z,272
2018-07-16T04:39:55.558Z,276
2018-07-16T04:40:55.130Z,284
2018-07-16T04:41:55.381Z,300
2018-07-16T04:42:55.398Z,332
2018-07-16T04:43:55.421Z,344
2018-07-16T04:44:55.458Z,344
2018-07-16T04:45:55.212Z,308
2018-07-16T04:46:55.235Z,292
2018-07-16T04:47:54.996Z,300
2018-07-16T04:48:55.008Z,300
2018-07-16T04:49:55.030Z,312
2018-07-16T04:50:55.066Z,332
2018-07-16T04:51:55.598Z,344
2018-07-16T04:52:55.685Z,352
2018-07-16T04:53:55.381Z,352
2018-07-16T04:54:55.673Z,348
2018-07-16T04:55:55.689Z,380
2018-07-16T04:56:55.209Z,408
2018-07-16T04:57:55.740Z,384
2018-07-16T04:58:55.812Z,388
2018-07-16T04:59:55.780Z,364
2018-07-16T05:00:55.544Z,372
2018-07-16T05:01:55.561Z,400
2018-07-16T05:02:55.590Z,428
2018-07-16T05:03:55.615Z,444
2018-07-16T05:04:55.901Z,456
2018-07-16T05:05:55.652Z,452
2018-07-16T05:06:55.675Z,444
2018-07-16T05:07:55.473Z,436
2018-07-16T05:08:55.974Z,416
2018-07-16T05:09:55.744Z,384
2018-07-16T05:10:56.057Z,344
2018-07-16T05:11:56.050Z,332
2018-07-16T05:12:55.818Z,324
2018-07-16T05:13:56.090Z,320
2018-07-16T05:14:55.850Z,320
2018-07-16T05:15:55.886Z,320
2018-07-16T05:16:55.641Z,316
2018-07-16T05:17:56.183Z,316
2018-07-16T05:18:55.952Z,316
2018-07-16T05:19:55.972Z,320
2018-07-16T05:20:56.269Z,320
2018-07-16T05:21:56.285Z,320
2018-07-16T05:22:56.291Z,324
2018-07-16T05:23:56.178Z,324
2018-07-16T05:24:56.339Z,320
2018-07-16T05:25:56.365Z,320
2018-07-16T05:26:55.861Z,320
2018-07-16T05:27:56.142Z,316
2018-07-16T05:28:56.429Z,312
2018-07-16T05:29:56.446Z,312
2018-07-16T05:30:56.216Z,316
2018-07-16T05:31:56.473Z,312
2018-07-16T05:32:56.620Z,312
2018-07-16T05:33:56.276Z,320
2018-07-16T05:34:56.638Z,320
2018-07-16T05:35:56.332Z,320
2018-07-16T05:36:56.607Z,324
2018-07-16T05:37:56.731Z,328
2018-07-16T05:38:56.645Z,328
2018-07-16T05:39:56.422Z,332
2018-07-16T05:40:56.697Z,336
2018-07-16T05:41:56.232Z,340
2018-07-16T05:42:56.751Z,348
2018-07-16T05:43:56.765Z,356
2018-07-16T05:44:56.271Z,364
2018-07-16T05:45:56.818Z,372
2018-07-16T05:46:56.574Z,384
2018-07-16T05:47:56.854Z,396
2018-07-16T05:48:56.879Z,404
2018-07-16T05:49:56.378Z,412
2018-07-16T05:50:56.929Z,420
2018-07-16T05:51:56.686Z,424
2018-07-16T05:52:56.964Z,428
2018-07-16T05:53:56.999Z,428
2018-07-16T05:54:56.748Z,424
2018-07-16T05:55:57.031Z,420
2018-07-16T05:56:57.077Z,416
2018-07-16T05:57:57.090Z,412
2018-07-16T05:58:57.105Z,408
2018-07-16T05:59:56.874Z,404
2018-07-16T06:00:57.157Z,400
2018-07-16T06:01:57.176Z,400
2018-07-16T06:02:56.940Z,400
2018-07-16T06:03:56.947Z,396
2018-07-16T06:04:56.980Z,400
2018-07-16T06:05:56.998Z,400
2018-07-16T06:06:56.762Z,400
2018-07-16T06:07:56.785Z,404
2018-07-16T06:08:57.786Z,400
2018-07-16T06:09:57.347Z,404
2018-07-16T06:10:57.111Z,404
2018-07-16T06:11:57.138Z,404
2018-07-16T06:12:57.423Z,404
2018-07-16T06:13:57.495Z,400
2018-07-16T06:14:57.453Z,404
2018-07-16T06:15:57.233Z,400
2018-07-16T06:16:57.959Z,400
2018-07-16T06:17:57.028Z,396
2018-07-16T06:18:57.555Z,400
2018-07-16T06:19:57.578Z,396
2018-07-16T06:20:57.074Z,400
2018-07-16T06:21:57.614Z,400
2018-07-16T06:22:57.632Z,404
2018-07-16T06:23:57.862Z,404
2018-07-16T06:24:57.694Z,408
2018-07-16T06:25:57.454Z,412
2018-07-16T06:26:57.732Z,416
2018-07-16T06:27:57.488Z,420
2018-07-16T06:28:57.778Z,420
2018-07-16T06:29:57.809Z,424
2018-07-16T06:30:57.557Z,428
2018-07-16T06:31:57.879Z,428
2018-07-16T06:32:57.606Z,428
2018-07-16T06:33:58.439Z,428
2018-07-16T06:34:57.906Z,428
2018-07-16T06:35:57.933Z,428
2018-07-16T06:36:57.957Z,428
2018-07-16T06:37:57.977Z,428
2018-07-16T06:38:57.739Z,432
2018-07-16T06:39:58.458Z,432
2018-07-16T06:40:59.354Z,424
2018-07-16T06:41:58.075Z,424
2018-07-16T06:42:58.105Z,428
2018-07-16T06:43:58.122Z,432
2018-07-16T06:44:58.136Z,440
2018-07-16T06:45:58.165Z,436
2018-07-16T06:46:57.932Z,440
2018-07-16T06:47:58.281Z,440
2018-07-16T06:48:58.286Z,448
2018-07-16T06:49:58.250Z,452
2018-07-16T06:50:58.297Z,456
2018-07-16T06:51:58.038Z,464
2018-07-16T06:52:58.067Z,472
2018-07-16T06:53:58.359Z,480
2018-07-16T06:54:57.850Z,488
2018-07-16T06:55:58.132Z,504
2018-07-16T06:56:58.412Z,512
2018-07-16T06:57:58.177Z,524
2018-07-16T06:58:58.200Z,532
2018-07-16T06:59:58.477Z,544
2018-07-16T07:00:58.498Z,548
2018-07-16T07:01:58.726Z,560
2018-07-16T07:02:58.295Z,572
2018-07-16T07:03:58.307Z,580
2018-07-16T07:04:58.345Z,592
2018-07-16T07:05:58.622Z,596
2018-07-16T07:06:58.637Z,612
2018-07-16T07:07:58.403Z,620
2018-07-16T07:08:58.694Z,632
2018-07-16T07:09:58.762Z,640
2018-07-16T07:10:58.482Z,644
2018-07-16T07:11:58.237Z,648
2018-07-16T07:12:58.521Z,648
2018-07-16T07:13:58.797Z,652
2018-07-16T07:14:58.559Z,656
2018-07-16T07:15:58.590Z,660
2018-07-16T07:16:58.614Z,664
2018-07-16T07:17:58.918Z,664
2018-07-16T07:18:58.932Z,664
2018-07-16T07:19:59.035Z,660
2018-07-16T07:20:58.700Z,660
2018-07-16T07:21:58.983Z,664
2018-07-16T07:22:58.747Z,672
2018-07-16T07:23:59.032Z,684
2018-07-16T07:24:59.054Z,688
2018-07-16T07:25:58.820Z,692
2018-07-16T07:26:58.844Z,692
2018-07-16T07:27:58.888Z,712
2018-07-16T07:28:58.887Z,720
2018-07-16T07:29:59.175Z,720
2018-07-16T07:30:58.934Z,728
2018-07-16T07:31:58.967Z,732
2018-07-16T07:32:58.978Z,732
2018-07-16T07:33:59.268Z,728
2018-07-16T07:34:59.372Z,728
2018-07-16T07:35:59.209Z,728
2018-07-16T07:36:59.340Z,724
2018-07-16T07:37:59.099Z,728
2018-07-16T07:38:59.402Z,728
2018-07-16T07:39:59.165Z,732
2018-07-16T07:40:58.951Z,732
2018-07-16T07:41:59.449Z,732
2018-07-16T07:42:59.475Z,736
2018-07-16T07:43:59.509Z,744
2018-07-16T07:44:59.524Z,744
2018-07-16T07:45:59.289Z,748
2018-07-16T07:46:59.049Z,752
2018-07-16T07:47:59.340Z,756
2018-07-16T07:48:59.355Z,760
2018-07-16T07:49:59.397Z,768
2018-07-16T07:50:59.141Z,780
2018-07-16T07:51:59.700Z,788
2018-07-16T07:52:59.454Z,796
2018-07-16T07:53:59.743Z,808
2018-07-16T07:55:01.640Z,820
2018-07-16T07:55:59.819Z,828
2018-07-16T07:56:59.817Z,840
2018-07-16T07:57:59.574Z,848
2018-07-16T07:58:59.599Z,828
2018-07-16T07:59:59.623Z,880
2018-07-16T08:00:59.650Z,900
2018-07-16T08:01:59.664Z,912
2018-07-16T08:02:59.955Z,920
2018-07-16T08:03:59.979Z,936
2018-07-16T08:05:00.012Z,944
2018-07-16T08:05:59.764Z,952
2018-07-16T08:07:00.048Z,976
2018-07-16T08:07:59.554Z,988
2018-07-16T08:09:00.137Z,984
2018-07-16T08:10:00.144Z,992
2018-07-16T08:10:59.973Z,984
2018-07-16T08:12:00.249Z,1020
2018-07-16T08:13:00.225Z,1032
2018-07-16T08:14:01.892Z,1040
2018-07-16T08:15:00.341Z,1108
2018-07-16T08:16:00.305Z,1124
2018-07-16T08:16:59.791Z,1152
2018-07-16T08:18:00.354Z,1184
2018-07-16T08:19:00.368Z,1208
2018-07-16T08:20:00.416Z,1248
2018-07-16T08:21:00.586Z,1264
2018-07-16T08:22:01.423Z,1292
2018-07-16T08:22:59.926Z,1308
2018-07-16T08:24:00.500Z,1320
2018-07-16T08:25:00.515Z,1316
2018-07-16T08:26:00.194Z,1340
2018-07-16T08:27:00.034Z,1356
2018-07-16T08:28:00.531Z,1400
2018-07-16T08:29:01.175Z,1452
2018-07-16T08:30:01.134Z,1480
2018-07-16T08:31:00.405Z,1508
2018-07-16T08:32:00.692Z,1536
2018-07-16T08:33:00.468Z,1568
2018-07-16T08:34:00.780Z,1600
2018-07-16T08:35:00.774Z,1632
2018-07-16T08:36:00.537Z,1660
2018-07-16T08:37:01.037Z,1696
2018-07-16T08:38:00.586Z,1748
2018-07-16T08:39:00.965Z,1784
2018-07-16T08:40:00.903Z,1808
2018-07-16T08:41:00.934Z,1804
2018-07-16T08:42:00.950Z,1856
2018-07-16T08:43:00.975Z,1888
2018-07-16T08:44:00.469Z,1908
2018-07-16T08:45:01.203Z,1916
2018-07-16T08:46:00.772Z,1932
2018-07-16T08:47:00.811Z,1960
2018-07-16T08:48:00.558Z,1988
2018-07-16T08:49:00.850Z,2012
2018-07-16T08:50:01.133Z,2032
2018-07-16T08:51:01.156Z,2088
2018-07-16T08:52:00.922Z,2140
2018-07-16T08:53:01.058Z,2188
2018-07-16T08:54:00.988Z,2236
2018-07-16T08:55:01.278Z,2272
2018-07-16T08:56:00.780Z,2296
2018-07-16T08:57:01.054Z,2324
2018-07-16T08:58:01.082Z,2344
2018-07-16T08:59:01.369Z,2348
2018-07-16T09:00:01.132Z,2344
2018-07-16T09:01:01.419Z,2352
2018-07-16T09:02:01.449Z,2248
2018-07-16T09:03:01.476Z,2276
2018-07-16T09:04:01.021Z,2100
2018-07-16T09:05:01.265Z,2044
2018-07-16T09:06:01.557Z,1976
2018-07-16T09:07:01.143Z,1948
2018-07-16T09:08:01.610Z,1940
2018-07-16T09:09:01.373Z,1972
2018-07-16T09:10:01.411Z,1992
2018-07-16T09:11:02.305Z,2028
2018-07-16T09:12:01.715Z,2120
2018-07-16T09:13:01.745Z,2388
2018-07-16T09:14:01.526Z,2384
2018-07-16T09:15:01.535Z,2508
2018-07-16T09:16:01.560Z,2700
2018-07-16T09:17:01.571Z,2652
2018-07-16T09:18:01.931Z,2720
2018-07-16T09:19:01.651Z,2808
2018-07-16T09:20:01.930Z,2880
2018-07-16T09:21:01.969Z,2944
2018-07-16T09:22:01.736Z,3000
2018-07-16T09:23:01.765Z,3060
2018-07-16T09:24:02.050Z,3100
2018-07-16T09:25:02.071Z,3112
2018-07-16T09:26:02.105Z,3112
2018-07-16T09:27:01.622Z,3340
2018-07-16T09:28:02.167Z,3364
2018-07-16T09:29:01.663Z,3464
2018-07-16T09:30:01.954Z,3244
2018-07-16T09:31:02.245Z,3292
2018-07-16T09:32:02.057Z,3280
2018-07-16T09:33:02.300Z,3272
2018-07-16T09:34:02.320Z,3268
2018-07-16T09:35:02.393Z,3304
2018-07-16T09:36:02.413Z,3356
2018-07-16T09:37:02.416Z,3400
2018-07-16T09:38:02.184Z,3436
2018-07-16T09:39:02.037Z,3468
2018-07-16T09:40:01.973Z,3492
2018-07-16T09:41:02.535Z,3568
2018-07-16T09:42:02.293Z,3608
2018-07-16T09:43:02.319Z,3536
2018-07-16T09:44:01.830Z,3564
2018-07-16T09:45:02.392Z,3476
2018-07-16T09:46:02.421Z,3100
2018-07-16T09:47:02.177Z,2776
2018-07-16T09:48:02.528Z,2520
2018-07-16T09:49:02.494Z,2308
2018-07-16T09:50:02.531Z,2148
2018-07-16T09:51:02.817Z,2032
2018-07-16T09:52:02.854Z,1972
2018-07-16T09:53:02.882Z,1976
2018-07-16T09:54:02.909Z,2004
2018-07-16T09:55:02.942Z,1916
2018-07-16T09:56:03.112Z,1928
2018-07-16T09:57:02.990Z,1964
2018-07-16T09:58:03.021Z,2000
2018-07-16T09:59:02.523Z,2012
2018-07-16T10:00:02.814Z,2128
2018-07-16T10:01:03.103Z,2304
2018-07-16T10:02:03.137Z,2424
2018-07-16T10:03:03.158Z,2536
2018-07-16T10:04:02.406Z,2596
2018-07-16T10:05:03.229Z,2652
2018-07-16T10:06:03.026Z,2720
2018-07-16T10:07:03.015Z,2816
2018-07-16T10:08:03.316Z,2852
2018-07-16T10:09:03.372Z,2864
2018-07-16T10:10:03.100Z,2864
2018-07-16T10:11:03.142Z,2840
2018-07-16T10:12:03.189Z,2816
2018-07-16T10:13:03.452Z,2832
2018-07-16T10:14:03.241Z,2868
2018-07-16T10:15:03.520Z,2888
2018-07-16T10:16:03.550Z,2896
2018-07-16T10:17:02.788Z,2952
2018-07-16T10:18:03.607Z,3020
2018-07-16T10:19:03.369Z,3108
2018-07-16T10:20:03.416Z,3204
2018-07-16T10:21:03.177Z,2840
2018-07-16T10:22:03.220Z,3016
2018-07-16T10:23:03.229Z,3208
2018-07-16T10:24:03.782Z,3200
2018-07-16T10:25:03.551Z,3304
2018-07-16T10:26:03.698Z,3220
2018-07-16T10:27:03.358Z,3244
2018-07-16T10:28:03.677Z,3232
2018-07-16T10:29:03.672Z,3236
2018-07-16T10:30:03.701Z,3484
2018-07-16T10:31:03.745Z,3448
2018-07-16T10:32:04.022Z,3540
2018-07-16T10:33:03.273Z,3960
2018-07-16T10:34:04.600Z,4068
2018-07-16T10:35:03.859Z,3976
2018-07-16T10:36:03.888Z,4080
2018-07-16T10:37:04.188Z,4216
2018-07-16T10:38:03.954Z,4272
2018-07-16T10:39:04.240Z,4284
2018-07-16T10:40:03.746Z,4224
2018-07-16T10:41:04.065Z,4084
2018-07-16T10:42:04.074Z,3760
2018-07-16T10:43:04.368Z,3496
2018-07-16T10:44:04.448Z,3384
2018-07-16T10:45:03.638Z,3392
2018-07-16T10:46:03.933Z,3572
2018-07-16T10:47:03.963Z,3780
2018-07-16T10:48:04.252Z,3808
2018-07-16T10:49:04.282Z,3740
2018-07-16T10:50:04.055Z,3612
2018-07-16T10:51:04.097Z,3384
2018-07-16T10:52:04.117Z,3172
2018-07-16T10:53:04.684Z,3088
2018-07-16T10:54:04.437Z,3184
2018-07-16T10:55:04.547Z,3280
2018-07-16T10:56:04.504Z,4036
2018-07-16T10:57:04.544Z,4408
2018-07-16T10:58:04.828Z,4792
2018-07-16T10:59:04.343Z,4992
2018-07-16T11:00:04.641Z,4704
2018-07-16T11:01:04.665Z,5004
2018-07-16T11:02:04.890Z,5108
2018-07-16T11:03:05.277Z,5216
2018-07-16T11:04:04.757Z,5008
2018-07-16T11:05:04.553Z,5212
2018-07-16T11:06:04.560Z,5340
2018-07-16T11:07:04.848Z,4928
2018-07-16T11:08:04.888Z,4836
2018-07-16T11:09:05.202Z,4476
2018-07-16T11:10:04.942Z,4332
2018-07-16T11:11:04.719Z,4232
2018-07-16T11:12:05.029Z,4272
2018-07-16T11:13:05.308Z,4512
2018-07-16T11:14:04.828Z,4148
2018-07-16T11:15:05.064Z,4368
2018-07-16T11:16:05.410Z,4152
2018-07-16T11:17:04.909Z,4784
2018-07-16T11:18:04.968Z,4980
2018-07-16T11:19:05.492Z,4548
2018-07-16T11:20:05.288Z,4284
2018-07-16T11:21:05.501Z,4052
2018-07-16T11:22:05.597Z,4088
2018-07-16T11:23:05.366Z,3252
2018-07-16T11:24:05.428Z,2964
2018-07-16T11:25:05.689Z,2808
2018-07-16T11:26:06.167Z,2628
2018-07-16T11:27:06.155Z,2536
2018-07-16T11:28:05.989Z,2596
2018-07-16T11:29:05.297Z,3188
2018-07-16T11:30:05.651Z,3216
2018-07-16T11:31:05.757Z,3040
2018-07-16T11:32:05.933Z,3384
2018-07-16T11:33:06.304Z,3240
2018-07-16T11:34:06.256Z,3332
2018-07-16T11:35:06.083Z,1972
2018-07-16T11:36:06.058Z,1948
2018-07-16T11:37:05.830Z,2604
2018-07-16T11:38:06.128Z,2764
2018-07-16T11:39:06.164Z,3240
2018-07-16T11:40:06.185Z,3184
2018-07-16T11:41:06.220Z,2984
2018-07-16T11:42:05.727Z,2888
2018-07-16T11:43:06.023Z,2800
2018-07-16T11:44:06.069Z,2732
2018-07-16T11:45:06.361Z,2708
2018-07-16T11:46:06.580Z,2448
2018-07-16T11:47:06.429Z,2412
2018-07-16T11:48:06.182Z,2604
2018-07-16T11:49:06.218Z,2940
2018-07-16T11:50:06.511Z,2976
2018-07-16T11:51:06.296Z,2972
2018-07-16T11:52:06.663Z,3100
2018-07-16T11:53:06.612Z,3256
2018-07-16T11:54:06.122Z,3516
2018-07-16T11:55:06.682Z,3424
2018-07-16T11:56:06.203Z,3512
2018-07-16T11:57:06.751Z,3692
2018-07-16T11:58:06.526Z,3748
2018-07-16T11:59:07.249Z,3988
2018-07-16T12:00:06.847Z,4156
2018-07-16T12:01:06.632Z,3892
2018-07-16T12:02:06.659Z,3664
2018-07-16T12:03:06.958Z,3772
2018-07-16T12:04:06.461Z,3952
2018-07-16T12:05:07.174Z,2640
2018-07-16T12:06:06.528Z,2264
2018-07-16T12:07:06.307Z,2292
2018-07-16T12:08:07.134Z,3776
2018-07-16T12:09:06.627Z,3632
2018-07-16T12:10:06.928Z,3500
2018-07-16T12:11:07.221Z,3544
2018-07-16T12:12:07.000Z,3464
2018-07-16T12:13:07.293Z,3596
2018-07-16T12:14:07.066Z,3928
2018-07-16T12:15:07.105Z,3936
2018-07-16T12:16:06.886Z,4060
2018-07-16T12:17:07.158Z,4004
2018-07-16T12:18:07.210Z,3940
2018-07-16T12:19:07.230Z,4108
2018-07-16T12:20:07.010Z,3640
2018-07-16T12:21:07.559Z,3336
2018-07-16T12:22:07.332Z,3932
2018-07-16T12:23:07.105Z,3960
2018-07-16T12:24:07.410Z,3824
2018-07-16T12:25:07.186Z,3912
2018-07-16T12:26:07.756Z,2576
2018-07-16T12:27:07.765Z,2880
2018-07-16T12:28:07.803Z,3504
2018-07-16T12:29:07.319Z,4040
2018-07-16T12:30:07.349Z,4092
2018-07-16T12:31:07.380Z,3640
2018-07-16T12:32:07.447Z,4508
2018-07-16T12:33:07.468Z,4892
2018-07-16T12:34:08.019Z,4960
2018-07-16T12:35:07.793Z,5044
2018-07-16T12:36:07.818Z,4984
2018-07-16T12:37:07.846Z,5164
2018-07-16T12:38:07.893Z,5244
2018-07-16T12:39:08.187Z,5504
2018-07-16T12:40:07.451Z,5648
2018-07-16T12:41:07.992Z,5580
2018-07-16T12:42:07.771Z,5632
2018-07-16T12:43:08.057Z,5216
2018-07-16T12:44:08.352Z,4612
2018-07-16T12:45:07.872Z,4360
2018-07-16T12:46:08.171Z,3136
2018-07-16T12:47:08.057Z,1828
2018-07-16T12:48:08.357Z,1648
2018-07-16T12:49:08.266Z,1512
2018-07-16T12:50:08.040Z,1484
2018-07-16T12:51:08.601Z,1424
2018-07-16T12:52:08.113Z,1636
2018-07-16T12:53:08.147Z,1684
2018-07-16T12:54:08.188Z,1572
2018-07-16T12:55:08.217Z,1632
2018-07-16T12:56:08.511Z,1552
2018-07-16T12:57:08.628Z,1608
2018-07-16T12:58:08.859Z,2276
2018-07-16T12:59:08.889Z,3784
2018-07-16T13:00:08.921Z,3904
2018-07-16T13:01:08.440Z,3936
2018-07-16T13:02:08.465Z,3844
2018-07-16T13:03:09.039Z,3884
2018-07-16T13:04:09.054Z,4008
2018-07-16T13:05:08.830Z,4064
2018-07-16T13:06:08.980Z,4196
2018-07-16T13:07:09.166Z,4424
2018-07-16T13:08:09.210Z,4536
2018-07-16T13:09:09.255Z,4720
2018-07-16T13:10:09.010Z,4928
2018-07-16T13:11:09.040Z,5040
2018-07-16T13:12:09.343Z,5132
2018-07-16T13:13:08.854Z,5348
2018-07-16T13:14:09.148Z,5432
2018-07-16T13:15:09.447Z,5380
2018-07-16T13:16:09.673Z,5512
2018-07-16T13:17:08.996Z,5496
2018-07-16T13:18:09.298Z,5588
2018-07-16T13:19:09.349Z,5384
2018-07-16T13:20:09.108Z,5224
2018-07-16T13:21:09.658Z,4856
2018-07-16T13:22:09.715Z,4604
2018-07-16T13:23:09.764Z,4452
2018-07-16T13:24:09.507Z,1676
2018-07-16T13:25:09.286Z,1584
2018-07-16T13:26:09.316Z,1356
2018-07-16T13:27:09.887Z,1120
2018-07-16T13:28:09.649Z,1188
2018-07-16T13:29:09.948Z,1148
2018-07-16T13:30:09.993Z,1220
2018-07-16T13:31:09.501Z,1260
2018-07-16T13:32:09.797Z,1352
2018-07-16T13:33:09.873Z,1424
2018-07-16T13:34:09.626Z,1380
2018-07-16T13:35:09.912Z,1440
2018-07-16T13:36:09.419Z,1588
2018-07-16T13:37:10.280Z,1720
2018-07-16T13:38:10.274Z,1768
2018-07-16T13:39:10.313Z,1724
2018-07-16T13:40:10.348Z,1696
2018-07-16T13:41:10.116Z,1720
2018-07-16T13:42:10.421Z,1812
2018-07-16T13:43:09.928Z,2056
2018-07-16T13:44:10.227Z,2280
2018-07-16T13:45:10.529Z,2340
2018-07-16T13:46:10.037Z,2292
2018-07-16T13:47:10.344Z,2256
2018-07-16T13:48:10.371Z,2368
2018-07-16T13:49:10.678Z,2504